Flugplatz Meschede-Schüren

Für EDKM sind keine METAR/TAF Berichte vorhanden.
Es werden die Flugwettermeldungen vom Flugplatz Paderborn Lippstadt in 43 km Entfernung angezeigt.

Bericht für EDLP

vom 04.12. um 19:50 UTC

Wind 5 kt aus 90°

Sichtweite 10 km oder mehr

aufgebrochene Bewölkung in 2600 ft

Temperatur 3.0°C

Taupunkt 0.0°C

Luftfeuchtigkeit 81%

Luftdruck 991 hPa

EDLP 041950Z 09005KT 060V140 9999 BKN026 03/00 Q0991

Prognose für EDLP

vom 04.12. um 17:00 UTC

Zwischen 18:00 UTC und 00:00 UTC

Wind 6 kt aus 120°

Sichtweite 10 km oder mehr

keine signifikanten Wettererscheinungen

keine Wolken


Am 05.12. zwischen 00:00 und 03:00 UTC übergehend zu

variable Windrichtung mit 3 kt

Sichtweite 10 km oder mehr

keine signifikanten Wettererscheinungen

keine Wolken


Am 05.12. zwischen 03:00 UTC und 11:00 UTC zeitweise

Sichtweite 2500 m

schwacher Regen

schwacher Schnee

aufgebrochene Bewölkung in 900 ft


Am 05.12. zwischen 04:00 UTC und 10:00 UTC zeitweise mit einer Wahrscheinlichkeit von 30%

Sichtweite 1300 m

Schnee

Regen

aufgebrochene Bewölkung in 400 ft


Am 05.12. zwischen 07:00 und 10:00 UTC übergehend zu

Wind 7 kt aus 180°

Sichtweite 10 km oder mehr

keine signifikanten Wettererscheinungen

keine Wolken

TAF EDLP 041700Z 0418/0518 12006KT CAVOK BECMG 0500/0503 VRB03KT TEMPO 0503/0511 2500 -RASN BKN009 PROB30 TEMPO 0504/0510 1300 SNRA BKN004 BECMG 0507/0510 18007KT
Impressum